sensor_id;sensor_type;location;lat;lon;timestamp;pressure;altitude;pressure_sealevel;temperature;humidity
60897;BME280;46749;32.932;-117.130;2023-08-06T00:00:55;101079.09;;;21.32;59.87
60897;BME280;46749;32.932;-117.130;2023-08-06T00:03:21;101077.31;;;21.31;59.86
60897;BME280;46749;32.932;-117.130;2023-08-06T00:05:47;101081.72;;;21.44;59.59
60897;BME280;46749;32.932;-117.130;2023-08-06T00:08:13;101074.59;;;21.61;59.08
60897;BME280;46749;32.932;-117.130;2023-08-06T00:10:40;101088.66;;;21.72;58.82
60897;BME280;46749;32.932;-117.130;2023-08-06T00:13:07;101086.84;;;21.80;58.69
60897;BME280;46749;32.932;-117.130;2023-08-06T00:15:33;101081.63;;;21.76;58.49
60897;BME280;46749;32.932;-117.130;2023-08-06T00:17:59;101078.13;;;21.63;58.91
60897;BME280;46749;32.932;-117.130;2023-08-06T00:20:25;101078.97;;;21.68;59.10
60897;BME280;46749;32.932;-117.130;2023-08-06T00:22:51;101076.31;;;21.77;58.67
60897;BME280;46749;32.932;-117.130;2023-08-06T00:25:18;101062.19;;;21.85;58.32
60897;BME280;46749;32.932;-117.130;2023-08-06T00:27:45;101066.56;;;21.90;58.30
60897;BME280;46749;32.932;-117.130;2023-08-06T00:30:11;101064.78;;;21.92;58.33
60897;BME280;46749;32.932;-117.130;2023-08-06T00:32:37;101069.19;;;21.95;58.25
60897;BME280;46749;32.932;-117.130;2023-08-06T00:35:04;101065.72;;;21.80;58.43
60897;BME280;46749;32.932;-117.130;2023-08-06T00:37:30;101063.13;;;21.70;58.73
60897;BME280;46749;32.932;-117.130;2023-08-06T00:39:56;101052.56;;;21.61;59.05
60897;BME280;46749;32.932;-117.130;2023-08-06T00:42:23;101044.66;;;21.54;59.08
60897;BME280;46749;32.932;-117.130;2023-08-06T00:44:49;101046.44;;;21.49;59.33
60897;BME280;46749;32.932;-117.130;2023-08-06T00:47:15;101045.53;;;21.60;59.27
60897;BME280;46749;32.932;-117.130;2023-08-06T00:49:42;101043.72;;;21.75;59.05
60897;BME280;46749;32.932;-117.130;2023-08-06T00:52:08;101043.66;;;21.85;58.55
60897;BME280;46749;32.932;-117.130;2023-08-06T00:54:36;101041.00;;;21.91;58.15
60897;BME280;46749;32.932;-117.130;2023-08-06T00:57:03;101034.00;;;21.82;58.38
60897;BME280;46749;32.932;-117.130;2023-08-06T00:59:31;101034.03;;;21.71;58.80
60897;BME280;46749;32.932;-117.130;2023-08-06T01:01:57;101026.97;;;21.73;58.85
60897;BME280;46749;32.932;-117.130;2023-08-06T01:04:24;101028.69;;;21.85;58.47
60897;BME280;46749;32.932;-117.130;2023-08-06T01:09:35;101022.44;;;21.97;58.19
60897;BME280;46749;32.932;-117.130;2023-08-06T01:15:15;101026.09;;;21.73;58.83
60897;BME280;46749;32.932;-117.130;2023-08-06T01:17:45;101018.19;;;21.62;58.99
60897;BME280;46749;32.932;-117.130;2023-08-06T01:20:11;101017.31;;;21.69;59.06
60897;BME280;46749;32.932;-117.130;2023-08-06T01:22:37;101011.06;;;21.84;58.75
60897;BME280;46749;32.932;-117.130;2023-08-06T01:25:04;101010.13;;;21.93;58.47
60897;BME280;46749;32.932;-117.130;2023-08-06T01:27:37;101003.94;;;21.97;58.64
60897;BME280;46749;32.932;-117.130;2023-08-06T01:30:12;101009.28;;;21.89;58.29
60897;BME280;46749;32.932;-117.130;2023-08-06T01:32:44;101012.88;;;21.77;58.82
60897;BME280;46749;32.932;-117.130;2023-08-06T01:35:12;101016.44;;;21.69;59.01
60897;BME280;46749;32.932;-117.130;2023-08-06T01:37:40;101010.28;;;21.61;59.36
60897;BME280;46749;32.932;-117.130;2023-08-06T01:40:11;101016.47;;;21.58;59.47
60897;BME280;46749;32.932;-117.130;2023-08-06T01:42:40;101016.47;;;21.55;59.47
60897;BME280;46749;32.932;-117.130;2023-08-06T01:45:09;101017.38;;;21.52;59.54
60897;BME280;46749;32.932;-117.130;2023-08-06T01:47:36;101018.19;;;21.68;59.34
60897;BME280;46749;32.932;-117.130;2023-08-06T01:50:03;101007.53;;;21.84;59.05
60897;BME280;46749;32.932;-117.130;2023-08-06T01:52:29;101015.41;;;21.93;58.58
60897;BME280;46749;32.932;-117.130;2023-08-06T01:54:55;101010.97;;;21.99;58.48
60897;BME280;46749;32.932;-117.130;2023-08-06T01:57:21;101017.19;;;21.95;58.38
60897;BME280;46749;32.932;-117.130;2023-08-06T01:59:47;101018.03;;;22.02;58.33
60897;BME280;46749;32.932;-117.130;2023-08-06T02:02:14;101013.59;;;22.07;58.03
60897;BME280;46749;32.932;-117.130;2023-08-06T02:04:40;101022.41;;;22.09;58.18
60897;BME280;46749;32.932;-117.130;2023-08-06T02:07:06;101025.06;;;22.03;58.29
60897;BME280;46749;32.932;-117.130;2023-08-06T02:09:32;101033.06;;;21.89;58.46
60897;BME280;46749;32.932;-117.130;2023-08-06T02:11:59;101026.09;;;21.77;58.85
60897;BME280;46749;32.932;-117.130;2023-08-06T02:14:25;101026.13;;;21.70;59.14
60897;BME280;46749;32.932;-117.130;2023-08-06T02:16:51;101039.34;;;21.65;59.42
60897;BME280;46749;32.932;-117.130;2023-08-06T02:19:17;101027.00;;;21.66;59.52
60897;BME280;46749;32.932;-117.130;2023-08-06T02:21:43;101028.69;;;21.84;58.88
60897;BME280;46749;32.932;-117.130;2023-08-06T02:24:09;101033.06;;;21.94;58.91
60897;BME280;46749;32.932;-117.130;2023-08-06T02:26:36;101031.25;;;22.02;58.34
60897;BME280;46749;32.932;-117.130;2023-08-06T02:29:02;101025.06;;;22.03;58.50
60897;BME280;46749;32.932;-117.130;2023-08-06T02:31:28;101037.47;;;21.90;58.65
60897;BME280;46749;32.932;-117.130;2023-08-06T02:33:54;101034.88;;;21.79;58.97
60897;BME280;46749;32.932;-117.130;2023-08-06T02:36:20;101036.66;;;21.73;59.01
60897;BME280;46749;32.932;-117.130;2023-08-06T02:38:47;101036.69;;;21.70;59.38
60897;BME280;46749;32.932;-117.130;2023-08-06T02:41:13;101028.78;;;21.65;59.62
60897;BME280;46749;32.932;-117.130;2023-08-06T02:43:39;101034.97;;;21.63;59.63
60897;BME280;46749;32.932;-117.130;2023-08-06T02:46:05;101043.78;;;21.63;59.67
60897;BME280;46749;32.932;-117.130;2023-08-06T02:48:31;101050.75;;;21.83;59.20
60897;BME280;46749;32.932;-117.130;2023-08-06T02:50:58;101055.97;;;21.95;58.73
60897;BME280;46749;32.932;-117.130;2023-08-06T02:53:25;101055.03;;;22.02;58.59
60897;BME280;46749;32.932;-117.130;2023-08-06T02:55:51;101053.25;;;22.04;58.96
60897;BME280;46749;32.932;-117.130;2023-08-06T02:58:17;101052.44;;;21.91;58.89
60897;BME280;46749;32.932;-117.130;2023-08-06T03:01:02;101064.84;;;21.80;59.09
60897;BME280;46749;32.932;-117.130;2023-08-06T03:03:30;101062.22;;;21.74;59.31
60897;BME280;46749;32.932;-117.130;2023-08-06T03:05:56;101063.97;;;21.79;59.44
60897;BME280;46749;32.932;-117.130;2023-08-06T03:08:23;101065.66;;;21.93;58.98
60897;BME280;46749;32.932;-117.130;2023-08-06T03:10:50;101067.38;;;22.03;58.49
60897;BME280;46749;32.932;-117.130;2023-08-06T03:13:17;101077.97;;;22.09;58.45
60897;BME280;46749;32.932;-117.130;2023-08-06T03:15:43;101079.72;;;22.04;58.66
60897;BME280;46749;32.932;-117.130;2023-08-06T03:18:17;101073.59;;;21.93;58.87
60897;BME280;46749;32.932;-117.130;2023-08-06T03:20:44;101081.50;;;22.02;58.99
60897;BME280;46749;32.932;-117.130;2023-08-06T03:23:11;101077.97;;;22.09;58.18
60897;BME280;46749;32.932;-117.130;2023-08-06T03:25:37;101081.47;;;22.14;58.30
60897;BME280;46749;32.932;-117.130;2023-08-06T03:28:03;101080.59;;;22.14;58.39
60897;BME280;46749;32.932;-117.130;2023-08-06T03:30:29;101074.44;;;21.98;58.63
60897;BME280;46749;32.932;-117.130;2023-08-06T03:32:55;101079.78;;;21.87;58.72
60897;BME280;46749;32.932;-117.130;2023-08-06T03:35:21;101079.81;;;21.84;58.97
60897;BME280;46749;32.932;-117.130;2023-08-06T03:37:48;101077.13;;;21.96;58.94
60897;BME280;46749;32.932;-117.130;2023-08-06T03:40:15;101081.47;;;22.06;58.39
60897;BME280;46749;32.932;-117.130;2023-08-06T03:42:41;101091.16;;;22.14;58.47
60897;BME280;46749;32.932;-117.130;2023-08-06T03:45:08;101090.28;;;22.10;58.72
60897;BME280;46749;32.932;-117.130;2023-08-06T03:47:34;101093.81;;;22.12;58.24
60897;BME280;46749;32.932;-117.130;2023-08-06T03:50:01;101102.59;;;22.17;58.33
60897;BME280;46749;32.932;-117.130;2023-08-06T03:52:27;101097.31;;;22.20;57.95
60897;BME280;46749;32.932;-117.130;2023-08-06T03:54:53;101107.00;;;22.21;58.25
60897;BME280;46749;32.932;-117.130;2023-08-06T03:57:19;101108.78;;;22.08;58.26
60897;BME280;46749;32.932;-117.130;2023-08-06T03:59:45;101106.22;;;21.95;58.64
60897;BME280;46749;32.932;-117.130;2023-08-06T04:02:12;101115.91;;;21.96;58.97
60897;BME280;46749;32.932;-117.130;2023-08-06T04:04:38;101111.44;;;22.07;58.69
60897;BME280;46749;32.932;-117.130;2023-08-06T04:07:04;101112.34;;;22.14;58.30
60897;BME280;46749;32.932;-117.130;2023-08-06T04:09:30;101123.75;;;22.19;58.44
60897;BME280;46749;32.932;-117.130;2023-08-06T04:11:57;101128.19;;;22.11;58.43
60897;BME280;46749;32.932;-117.130;2023-08-06T04:14:26;101133.53;;;21.97;58.55
60897;BME280;46749;32.932;-117.130;2023-08-06T04:16:52;101127.38;;;21.95;59.04
60897;BME280;46749;32.932;-117.130;2023-08-06T04:19:18;101129.09;;;22.03;58.48
60897;BME280;46749;32.932;-117.130;2023-08-06T04:21:44;101128.19;;;22.12;58.40
60897;BME280;46749;32.932;-117.130;2023-08-06T04:24:10;101124.66;;;22.16;58.05
60897;BME280;46749;32.932;-117.130;2023-08-06T04:26:36;101136.13;;;22.11;58.40
60897;BME280;46749;32.932;-117.130;2023-08-06T04:29:03;101139.69;;;22.02;58.73
60897;BME280;46749;32.932;-117.130;2023-08-06T04:31:29;101145.81;;;22.08;58.76
60897;BME280;46749;32.932;-117.130;2023-08-06T04:33:55;101144.94;;;22.17;58.76
60897;BME280;46749;32.932;-117.130;2023-08-06T04:36:22;101148.47;;;22.19;58.65
60897;BME280;46749;32.932;-117.130;2023-08-06T04:38:48;101156.38;;;22.18;58.36
60897;BME280;46749;32.932;-117.130;2023-08-06T04:41:14;101159.06;;;22.04;58.66
60897;BME280;46749;32.932;-117.130;2023-08-06T04:43:40;101164.38;;;21.93;58.97
60897;BME280;46749;32.932;-117.130;2023-08-06T04:46:06;101161.72;;;21.99;58.92
60897;BME280;46749;32.932;-117.130;2023-08-06T04:48:32;101158.19;;;22.06;58.71
60897;BME280;46749;32.932;-117.130;2023-08-06T04:50:59;101158.19;;;22.11;58.48
60897;BME280;46749;32.932;-117.130;2023-08-06T04:53:25;101172.28;;;22.15;58.51
60897;BME280;46749;32.932;-117.130;2023-08-06T04:55:52;101156.44;;;22.01;58.92
60897;BME280;46749;32.932;-117.130;2023-08-06T04:58:18;101162.63;;;21.91;58.70
60897;BME280;46749;32.932;-117.130;2023-08-06T05:00:44;101167.97;;;21.83;59.25
60897;BME280;46749;32.932;-117.130;2023-08-06T05:03:10;101170.63;;;21.81;59.41
60897;BME280;46749;32.932;-117.130;2023-08-06T05:05:36;101168.78;;;21.93;58.88
60897;BME280;46749;32.932;-117.130;2023-08-06T05:08:03;101168.78;;;22.00;58.72
60897;BME280;46749;32.932;-117.130;2023-08-06T05:10:29;101170.50;;;22.06;58.59
60897;BME280;46749;32.932;-117.130;2023-08-06T05:12:55;101178.44;;;22.06;58.47
60897;BME280;46749;32.932;-117.130;2023-08-06T05:15:22;101182.00;;;21.93;58.89
60897;BME280;46749;32.932;-117.130;2023-08-06T05:17:48;101168.84;;;21.84;59.22
60897;BME280;46749;32.932;-117.130;2023-08-06T05:20:14;101172.38;;;21.76;59.25
60897;BME280;46749;32.932;-117.130;2023-08-06T05:22:41;101168.88;;;21.70;59.66
60897;BME280;46749;32.932;-117.130;2023-08-06T05:25:07;101165.31;;;21.78;59.29
60897;BME280;46749;32.932;-117.130;2023-08-06T05:27:34;101167.94;;;21.89;59.02
60897;BME280;46749;32.932;-117.130;2023-08-06T05:30:00;101167.03;;;21.96;58.77
60897;BME280;46749;32.932;-117.130;2023-08-06T05:32:26;101166.16;;;22.00;58.73
60897;BME280;46749;32.932;-117.130;2023-08-06T05:34:52;101166.16;;;21.93;58.65
60897;BME280;46749;32.932;-117.130;2023-08-06T05:37:19;101168.84;;;21.82;59.07
60897;BME280;46749;32.932;-117.130;2023-08-06T05:39:45;101169.75;;;21.76;59.17
60897;BME280;46749;32.932;-117.130;2023-08-06T05:42:11;101174.09;;;21.85;59.04
60897;BME280;46749;32.932;-117.130;2023-08-06T05:44:37;101164.41;;;21.92;58.72
60897;BME280;46749;32.932;-117.130;2023-08-06T05:47:04;101157.34;;;21.97;58.85
60897;BME280;46749;32.932;-117.130;2023-08-06T05:49:30;101164.34;;;21.99;58.59
60897;BME280;46749;32.932;-117.130;2023-08-06T05:51:56;101175.88;;;21.88;58.77
60897;BME280;46749;32.932;-117.130;2023-08-06T05:54:22;101175.03;;;21.78;59.02
60897;BME280;46749;32.932;-117.130;2023-08-06T05:56:48;101177.69;;;21.70;59.28
60897;BME280;46749;32.932;-117.130;2023-08-06T05:59:14;101178.56;;;21.65;59.61
60897;BME280;46749;32.932;-117.130;2023-08-06T06:01:41;101172.41;;;21.60;59.62
60897;BME280;46749;32.932;-117.130;2023-08-06T06:04:07;101173.31;;;21.57;59.72
60897;BME280;46749;32.932;-117.130;2023-08-06T06:06:33;101168.88;;;21.67;59.55
60897;BME280;46749;32.932;-117.130;2023-08-06T06:08:59;101173.25;;;21.78;59.22
60897;BME280;46749;32.932;-117.130;2023-08-06T06:11:25;101170.56;;;21.86;58.85
60897;BME280;46749;32.932;-117.130;2023-08-06T06:13:51;101172.31;;;21.92;58.81
60897;BME280;46749;32.932;-117.130;2023-08-06T06:16:18;101169.72;;;21.83;58.93
60897;BME280;46749;32.932;-117.130;2023-08-06T06:18:44;101167.09;;;21.72;59.09
60897;BME280;46749;32.932;-117.130;2023-08-06T06:21:10;101172.38;;;21.79;59.24
60897;BME280;46749;32.932;-117.130;2023-08-06T06:23:37;101172.34;;;21.86;58.78
60897;BME280;46749;32.932;-117.130;2023-08-06T06:26:03;101175.88;;;21.89;58.78
60897;BME280;46749;32.932;-117.130;2023-08-06T06:28:29;101172.34;;;21.90;58.63
60897;BME280;46749;32.932;-117.130;2023-08-06T06:31:00;101179.41;;;21.79;58.77
60897;BME280;46749;32.932;-117.130;2023-08-06T06:33:27;101175.06;;;21.69;59.09
60897;BME280;46749;32.932;-117.130;2023-08-06T06:35:53;101178.56;;;21.69;59.16
60897;BME280;46749;32.932;-117.130;2023-08-06T06:38:20;101179.44;;;21.77;59.13
60897;BME280;46749;32.932;-117.130;2023-08-06T06:40:55;101185.59;;;21.84;58.92
60897;BME280;46749;32.932;-117.130;2023-08-06T06:43:21;101178.53;;;21.88;58.64
60897;BME280;46749;32.932;-117.130;2023-08-06T06:45:52;101177.63;;;21.87;58.88
60897;BME280;46749;32.932;-117.130;2023-08-06T06:48:19;101181.19;;;21.88;58.68
60897;BME280;46749;32.932;-117.130;2023-08-06T06:50:49;101183.81;;;21.89;58.61
60897;BME280;46749;32.932;-117.130;2023-08-06T06:53:15;101185.56;;;21.90;58.55
60897;BME280;46749;32.932;-117.130;2023-08-06T06:55:41;101182.91;;;21.87;58.74
60897;BME280;46749;32.932;-117.130;2023-08-06T06:58:07;101174.13;;;21.74;58.83
60897;BME280;46749;32.932;-117.130;2023-08-06T07:00:36;101173.31;;;21.63;59.09
60897;BME280;46749;32.932;-117.130;2023-08-06T07:03:03;101172.38;;;21.67;58.97
60897;BME280;46749;32.932;-117.130;2023-08-06T07:05:29;101166.22;;;21.76;58.88
60897;BME280;46749;32.932;-117.130;2023-08-06T07:07:55;101174.13;;;21.80;58.62
60897;BME280;46749;32.932;-117.130;2023-08-06T07:10:21;101174.13;;;21.84;58.59
60897;BME280;46749;32.932;-117.130;2023-08-06T07:12:47;101178.56;;;21.71;58.83
60897;BME280;46749;32.932;-117.130;2023-08-06T07:15:14;101175.03;;;21.61;59.11
60897;BME280;46749;32.932;-117.130;2023-08-06T07:17:40;101167.13;;;21.53;59.34
60897;BME280;46749;32.932;-117.130;2023-08-06T07:20:06;101170.66;;;21.59;59.27
60897;BME280;46749;32.932;-117.130;2023-08-06T07:22:33;101187.38;;;21.68;59.09
60897;BME280;46749;32.932;-117.130;2023-08-06T07:24:59;101185.59;;;21.73;59.04
60897;BME280;46749;32.932;-117.130;2023-08-06T07:27:25;101183.81;;;21.78;58.65
60897;BME280;46749;32.932;-117.130;2023-08-06T07:29:52;101183.84;;;21.72;58.80
60897;BME280;46749;32.932;-117.130;2023-08-06T07:32:18;101179.44;;;21.71;58.79
60897;BME280;46749;32.932;-117.130;2023-08-06T07:34:45;101180.31;;;21.76;58.63
60897;BME280;46749;32.932;-117.130;2023-08-06T07:37:13;101173.25;;;21.78;58.55
60897;BME280;46749;32.932;-117.130;2023-08-06T07:39:39;101172.34;;;21.81;58.66
60897;BME280;46749;32.932;-117.130;2023-08-06T07:42:07;101176.78;;;21.71;58.69
60897;BME280;46749;32.932;-117.130;2023-08-06T07:44:33;101171.53;;;21.59;59.05
60897;BME280;46749;32.932;-117.130;2023-08-06T07:46:59;101180.34;;;21.60;59.08
60897;BME280;46749;32.932;-117.130;2023-08-06T07:49:26;101173.25;;;21.68;58.92
60897;BME280;46749;32.932;-117.130;2023-08-06T07:51:53;101179.44;;;21.73;58.55
60897;BME280;46749;32.932;-117.130;2023-08-06T07:54:19;101173.28;;;21.75;58.52
60897;BME280;46749;32.932;-117.130;2023-08-06T07:56:45;101166.22;;;21.68;58.75
60897;BME280;46749;32.932;-117.130;2023-08-06T07:59:11;101167.13;;;21.60;58.86
60897;BME280;46749;32.932;-117.130;2023-08-06T08:01:37;101164.47;;;21.67;58.76
60897;BME280;46749;32.932;-117.130;2023-08-06T08:04:03;101169.75;;;21.72;58.60
60897;BME280;46749;32.932;-117.130;2023-08-06T08:06:30;101175.91;;;21.74;58.54
60897;BME280;46749;32.932;-117.130;2023-08-06T08:08:56;101174.13;;;21.74;58.44
60897;BME280;46749;32.932;-117.130;2023-08-06T08:11:23;101169.75;;;21.61;58.80
60897;BME280;46749;32.932;-117.130;2023-08-06T08:13:49;101164.50;;;21.52;59.06
60897;BME280;46749;32.932;-117.130;2023-08-06T08:16:15;101170.66;;;21.43;59.28
60897;BME280;46749;32.932;-117.130;2023-08-06T08:18:41;101155.72;;;21.38;59.29
60897;BME280;46749;32.932;-117.130;2023-08-06T08:21:07;101157.44;;;21.48;59.15
60897;BME280;46749;32.932;-117.130;2023-08-06T08:23:33;101167.16;;;21.57;58.99
60897;BME280;46749;32.932;-117.130;2023-08-06T08:26:00;101165.34;;;21.62;58.73
60897;BME280;46749;32.932;-117.130;2023-08-06T08:28:27;101155.66;;;21.65;58.54
60897;BME280;46749;32.932;-117.130;2023-08-06T08:30:54;101157.44;;;21.54;58.88
60897;BME280;46749;32.932;-117.130;2023-08-06T08:33:21;101154.81;;;21.45;59.10
60897;BME280;46749;32.932;-117.130;2023-08-06T08:35:47;101153.06;;;21.38;59.38
60897;BME280;46749;32.932;-117.130;2023-08-06T08:38:14;101161.00;;;21.32;59.51
60897;BME280;46749;32.932;-117.130;2023-08-06T08:40:46;101149.53;;;21.28;59.49
60897;BME280;46749;32.932;-117.130;2023-08-06T08:43:15;101150.41;;;21.25;59.66
60897;BME280;46749;32.932;-117.130;2023-08-06T08:45:42;101141.59;;;21.23;59.54
60897;BME280;46749;32.932;-117.130;2023-08-06T08:48:14;101143.38;;;21.40;59.28
60897;BME280;46749;32.932;-117.130;2023-08-06T08:50:42;101145.13;;;21.47;58.97
60897;BME280;46749;32.932;-117.130;2023-08-06T08:53:08;101146.88;;;21.52;58.71
60897;BME280;46749;32.932;-117.130;2023-08-06T08:55:37;101144.22;;;21.54;58.82
60897;BME280;46749;32.932;-117.130;2023-08-06T08:58:04;101143.34;;;21.43;59.05
60897;BME280;46749;32.932;-117.130;2023-08-06T09:00:30;101142.50;;;21.33;59.16
60897;BME280;46749;32.932;-117.130;2023-08-06T09:02:59;101132.78;;;21.27;59.26
60897;BME280;46749;32.932;-117.130;2023-08-06T09:05:28;101138.06;;;21.23;59.53
60897;BME280;46749;32.932;-117.130;2023-08-06T09:08:03;101127.53;;;21.20;59.57
60897;BME280;46749;32.932;-117.130;2023-08-06T09:10:30;101131.91;;;21.16;59.60
60897;BME280;46749;32.932;-117.130;2023-08-06T09:12:57;101134.56;;;21.13;59.65
60897;BME280;46749;32.932;-117.130;2023-08-06T09:15:27;101137.19;;;21.12;59.92
60897;BME280;46749;32.932;-117.130;2023-08-06T09:17:54;101135.44;;;21.11;59.60
60897;BME280;46749;32.932;-117.130;2023-08-06T09:20:21;101133.69;;;21.19;59.69
60897;BME280;46749;32.932;-117.130;2023-08-06T09:22:47;101145.16;;;21.28;59.26
60897;BME280;46749;32.932;-117.130;2023-08-06T09:25:24;101138.97;;;21.36;59.11
60897;BME280;46749;32.932;-117.130;2023-08-06T09:27:52;101150.41;;;21.41;58.99
60897;BME280;46749;32.932;-117.130;2023-08-06T09:30:34;101150.44;;;21.32;59.03
60897;BME280;46749;32.932;-117.130;2023-08-06T09:33:01;101168.03;;;21.25;59.29
60897;BME280;46749;32.932;-117.130;2023-08-06T09:35:31;101170.66;;;21.17;59.35
60897;BME280;46749;32.932;-117.130;2023-08-06T09:38:07;101165.38;;;21.13;59.46
60897;BME280;46749;32.932;-117.130;2023-08-06T09:40:34;101168.88;;;21.12;59.63
60897;BME280;46749;32.932;-117.130;2023-08-06T09:43:01;101158.34;;;21.09;59.63
60897;BME280;46749;32.932;-117.130;2023-08-06T09:45:35;101159.22;;;21.06;59.64
60897;BME280;46749;32.932;-117.130;2023-08-06T09:48:05;101161.84;;;21.21;59.36
60897;BME280;46749;32.932;-117.130;2023-08-06T09:50:33;101159.22;;;21.29;59.15
60897;BME280;46749;32.932;-117.130;2023-08-06T09:53:03;101159.25;;;21.34;58.89
60897;BME280;46749;32.932;-117.130;2023-08-06T09:55:30;101153.06;;;21.36;58.93
60897;BME280;46749;32.932;-117.130;2023-08-06T09:57:58;101142.50;;;21.25;58.82
60897;BME280;46749;32.932;-117.130;2023-08-06T10:00:25;101141.59;;;21.17;59.10
60897;BME280;46749;32.932;-117.130;2023-08-06T10:02:53;101146.00;;;21.11;59.35
60897;BME280;46749;32.932;-117.130;2023-08-06T10:05:23;101142.47;;;21.12;59.31
60897;BME280;46749;32.932;-117.130;2023-08-06T10:07:50;101146.00;;;21.21;59.04
60897;BME280;46749;32.932;-117.130;2023-08-06T10:10:17;101132.78;;;21.27;58.88
60897;BME280;46749;32.932;-117.130;2023-08-06T10:12:50;101139.88;;;21.32;58.83
60897;BME280;46749;32.932;-117.130;2023-08-06T10:15:24;101141.63;;;21.30;59.02
60897;BME280;46749;32.932;-117.130;2023-08-06T10:17:54;101139.84;;;21.19;59.09
60897;BME280;46749;32.932;-117.130;2023-08-06T10:20:21;101146.88;;;21.26;58.69
60897;BME280;46749;32.932;-117.130;2023-08-06T10:23:14;101153.94;;;21.31;58.69
60897;BME280;46749;32.932;-117.130;2023-08-06T10:25:43;101151.31;;;21.35;58.47
60897;BME280;46749;32.932;-117.130;2023-08-06T10:28:10;101145.16;;;21.32;58.60
60897;BME280;46749;32.932;-117.130;2023-08-06T10:30:46;101152.16;;;21.20;58.61
60897;BME280;46749;32.932;-117.130;2023-08-06T10:33:12;101147.75;;;21.12;58.97
60897;BME280;46749;32.932;-117.130;2023-08-06T10:35:50;101155.69;;;21.13;59.04
60897;BME280;46749;32.932;-117.130;2023-08-06T10:38:22;101161.84;;;21.21;58.75
60897;BME280;46749;32.932;-117.130;2023-08-06T10:43:29;101139.88;;;21.28;58.49
60897;BME280;46749;32.932;-117.130;2023-08-06T10:45:57;101140.72;;;21.26;58.37
60897;BME280;46749;32.932;-117.130;2023-08-06T10:48:37;101138.97;;;21.30;58.40
60897;BME280;46749;32.932;-117.130;2023-08-06T10:51:08;101146.03;;;21.32;58.40
60897;BME280;46749;32.932;-117.130;2023-08-06T10:53:34;101148.66;;;21.34;58.14
60897;BME280;46749;32.932;-117.130;2023-08-06T10:56:21;101152.16;;;21.28;58.42
60897;BME280;46749;32.932;-117.130;2023-08-06T10:58:48;101141.59;;;21.17;58.61
60897;BME280;46749;32.932;-117.130;2023-08-06T11:01:15;101138.09;;;21.12;58.70
60897;BME280;46749;32.932;-117.130;2023-08-06T11:03:43;101138.09;;;21.18;58.56
60897;BME280;46749;32.932;-117.130;2023-08-06T11:06:10;101140.69;;;21.24;58.30
60897;BME280;46749;32.932;-117.130;2023-08-06T11:08:38;101139.84;;;21.25;58.53
60897;BME280;46749;32.932;-117.130;2023-08-06T11:11:12;101143.34;;;21.27;58.18
60897;BME280;46749;32.932;-117.130;2023-08-06T11:13:45;101141.59;;;21.16;58.69
60897;BME280;46749;32.932;-117.130;2023-08-06T11:16:23;101134.56;;;21.19;58.28
60897;BME280;46749;32.932;-117.130;2023-08-06T11:18:52;101138.06;;;21.24;58.48
60897;BME280;46749;32.932;-117.130;2023-08-06T11:21:22;101139.84;;;21.25;58.28
60897;BME280;46749;32.932;-117.130;2023-08-06T11:23:51;101141.59;;;21.23;58.27
60897;BME280;46749;32.932;-117.130;2023-08-06T11:26:21;101137.19;;;21.21;58.49
60897;BME280;46749;32.932;-117.130;2023-08-06T11:28:49;101144.25;;;21.25;58.30
60897;BME280;46749;32.932;-117.130;2023-08-06T11:31:22;101144.25;;;21.25;58.30
60897;BME280;46749;32.932;-117.130;2023-08-06T11:33:53;101141.59;;;21.26;58.20
60897;BME280;46749;32.932;-117.130;2023-08-06T11:36:30;101145.13;;;21.15;58.34
60897;BME280;46749;32.932;-117.130;2023-08-06T11:38:57;101153.03;;;21.04;58.56
60897;BME280;46749;32.932;-117.130;2023-08-06T11:41:24;101146.88;;;20.96;59.09
60897;BME280;46749;32.932;-117.130;2023-08-06T11:43:50;101143.38;;;21.06;58.67
60897;BME280;46749;32.932;-117.130;2023-08-06T11:46:17;101132.81;;;21.12;58.63
60897;BME280;46749;32.932;-117.130;2023-08-06T11:48:56;101141.59;;;21.16;58.43
60897;BME280;46749;32.932;-117.130;2023-08-06T11:51:24;101143.38;;;21.18;58.40
60897;BME280;46749;32.932;-117.130;2023-08-06T11:53:58;101151.31;;;21.06;58.58
60897;BME280;46749;32.932;-117.130;2023-08-06T11:56:25;101152.19;;;20.94;58.74
60897;BME280;46749;32.932;-117.130;2023-08-06T11:58:52;101153.03;;;20.89;59.16
60897;BME280;46749;32.932;-117.130;2023-08-06T12:01:18;101147.75;;;20.83;59.11
60897;BME280;46749;32.932;-117.130;2023-08-06T12:03:44;101140.72;;;20.86;59.31
60897;BME280;46749;32.932;-117.130;2023-08-06T12:06:10;101135.44;;;20.95;58.77
60897;BME280;46749;32.932;-117.130;2023-08-06T12:08:37;101141.59;;;21.02;58.45
60897;BME280;46749;32.932;-117.130;2023-08-06T12:11:04;101150.41;;;21.07;58.49
60897;BME280;46749;32.932;-117.130;2023-08-06T12:13:30;101153.94;;;21.03;58.44
60897;BME280;46749;32.932;-117.130;2023-08-06T12:15:56;101167.13;;;20.92;58.68
60897;BME280;46749;32.932;-117.130;2023-08-06T12:18:23;101166.22;;;20.84;58.75
60897;BME280;46749;32.932;-117.130;2023-08-06T12:20:49;101170.63;;;20.78;58.87
60897;BME280;46749;32.932;-117.130;2023-08-06T12:23:16;101174.13;;;20.73;59.28
60897;BME280;46749;32.932;-117.130;2023-08-06T12:25:42;101178.53;;;20.68;59.19
60897;BME280;46749;32.932;-117.130;2023-08-06T12:28:10;101182.91;;;20.66;59.27
60897;BME280;46749;32.932;-117.130;2023-08-06T12:30:38;101176.75;;;20.64;59.63